Time,TemperatureF,DewpointF,PressureIn,WindDirection,WindDirectionDegrees,WindSpeedMPH,WindSpeedGustMPH,Humidity,HourlyPrecipIn,Conditions,Clouds,dailyrainin,SoftwareType,DateUTC
2013-02-17 00:00:00,34.3,33.5,29.88,WNW,301,0.0,0.0,97,0.00,,---,0.26,VWS V14.01,2013-02-17 05:00:00,
2013-02-17 00:05:00,34.3,33.3,29.89,WNW,301,0.0,0.0,96,0.00,,---,0.00,VWS V14.01,2013-02-17 05:05:00,
2013-02-17 00:10:00,34.1,32.8,29.89,NNW,328,0.0,2.0,95,0.00,,---,0.00,VWS V14.01,2013-02-17 05:10:00,
2013-02-17 00:15:00,34.1,32.6,29.89,NNW,328,0.0,0.0,94,0.00,,---,0.00,VWS V14.01,2013-02-17 05:15:00,
2013-02-17 00:20:00,34.0,32.5,29.89,NNW,328,0.0,0.0,94,0.00,,---,0.00,VWS V14.01,2013-02-17 05:20:00,
2013-02-17 00:25:00,34.0,32.5,29.89,NNW,328,1.0,2.0,94,0.00,,---,0.00,VWS V14.01,2013-02-17 05:25:00,
2013-02-17 00:30:00,33.8,32.0,29.89,NW,326,3.0,4.0,93,0.00,,---,0.00,VWS V14.01,2013-02-17 05:30:00,
2013-02-17 00:35:00,33.7,31.4,29.89,NW,313,0.0,5.0,91,0.00,,---,0.00,VWS V14.01,2013-02-17 05:35:00,
2013-02-17 00:40:00,33.5,30.6,29.89,NW,313,0.0,5.0,89,0.00,,---,0.00,VWS V14.01,2013-02-17 05:40:00,
2013-02-17 00:45:00,33.4,30.2,29.89,NW,316,0.0,3.0,88,0.00,,---,0.00,VWS V14.01,2013-02-17 05:45:00,
2013-02-17 00:50:00,33.2,29.8,29.90,NNW,340,2.0,3.0,87,0.00,,---,0.00,VWS V14.01,2013-02-17 05:50:00,
2013-02-17 00:55:00,33.1,29.4,29.90,NW,313,0.0,3.0,86,0.00,,---,0.00,VWS V14.01,2013-02-17 05:55:00,
2013-02-17 01:00:00,32.9,28.9,29.90,NNW,333,3.0,3.0,85,0.00,,---,0.00,VWS V14.01,2013-02-17 06:00:00,
2013-02-17 01:05:00,32.8,28.5,29.90,NW,319,0.0,4.0,84,0.00,,---,0.00,VWS V14.01,2013-02-17 06:05:00,
2013-02-17 01:10:00,32.5,27.9,29.90,NW,319,0.0,6.0,83,0.00,,---,0.00,VWS V14.01,2013-02-17 06:10:00,
2013-02-17 01:15:00,32.4,27.2,29.90,NW,319,0.0,3.0,81,0.00,,---,0.00,VWS V14.01,2013-02-17 06:15:00,
2013-02-17 01:20:00,32.2,27.0,29.91,NW,319,0.0,3.0,81,0.00,,---,0.00,VWS V14.01,2013-02-17 06:20:00,
2013-02-17 01:25:00,32.1,26.9,29.91,SE,124,1.0,2.0,81,0.00,,---,0.00,VWS V14.01,2013-02-17 06:25:00,
2013-02-17 01:30:00,32.1,26.3,29.91,NW,308,0.0,5.0,79,0.00,,---,0.00,VWS V14.01,2013-02-17 06:30:00,
2013-02-17 01:35:00,31.9,25.8,29.91,NW,308,0.0,2.0,78,0.00,,---,0.00,VWS V14.01,2013-02-17 06:35:00,
2013-02-17 01:40:00,31.9,26.1,29.91,NW,308,0.0,2.0,79,0.00,,---,0.00,VWS V14.01,2013-02-17 06:40:00,
2013-02-17 01:45:00,31.9,26.7,29.91,NNW,328,0.0,3.0,81,0.00,,---,0.00,VWS V14.01,2013-02-17 06:45:00,
2013-02-17 01:50:00,31.8,26.0,29.91,NNW,328,0.0,3.0,79,0.00,,---,0.00,VWS V14.01,2013-02-17 06:50:00,
2013-02-17 01:55:00,31.8,26.6,29.91,WNW,302,0.0,0.0,81,0.00,,---,0.00,VWS V14.01,2013-02-17 06:55:00,
2013-02-17 02:00:00,31.6,26.5,29.91,WNW,302,0.0,0.0,81,0.00,,---,0.00,VWS V14.01,2013-02-17 07:00:00,
2013-02-17 02:05:00,31.6,26.5,29.92,NNW,343,0.0,0.0,81,0.00,,---,0.00,VWS V14.01,2013-02-17 07:05:00,
2013-02-17 02:10:00,31.5,26.6,29.92,NNW,343,1.0,1.0,82,0.00,,---,0.00,VWS V14.01,2013-02-17 07:10:00,
2013-02-17 02:15:00,31.3,26.2,29.92,NW,309,2.0,3.0,81,0.00,,---,0.00,VWS V14.01,2013-02-17 07:15:00,
2013-02-17 02:20:00,31.3,26.5,29.92,NW,309,1.0,3.0,82,0.00,,---,0.00,VWS V14.01,2013-02-17 07:20:00,
2013-02-17 02:25:00,31.3,25.9,29.92,WNW,296,0.0,3.0,80,0.00,,---,0.00,VWS V14.01,2013-02-17 07:25:00,
2013-02-17 02:30:00,31.3,25.6,29.92,WNW,296,0.0,3.0,79,0.00,,---,0.00,VWS V14.01,2013-02-17 07:30:00,
2013-02-17 02:35:00,31.3,25.2,29.92,NW,306,0.0,4.0,78,0.00,,---,0.00,VWS V14.01,2013-02-17 07:35:00,
2013-02-17 02:40:00,31.3,25.2,29.92,NW,306,0.0,4.0,78,0.00,,---,0.00,VWS V14.01,2013-02-17 07:40:00,
2013-02-17 02:45:00,31.2,25.1,29.92,NW,318,2.0,3.0,78,0.00,,---,0.00,VWS V14.01,2013-02-17 07:45:00,
2013-02-17 02:50:00,31.2,24.8,29.93,NW,320,1.0,5.0,77,0.00,,---,0.00,VWS V14.01,2013-02-17 07:50:00,
2013-02-17 02:55:00,31.3,24.6,29.93,NW,325,1.0,2.0,76,0.00,,---,0.00,VWS V14.01,2013-02-17 07:55:00,
2013-02-17 03:00:00,31.2,24.2,29.93,NW,325,0.0,3.0,75,0.00,,---,0.00,VWS V14.01,2013-02-17 08:00:00,
2013-02-17 03:05:00,31.2,24.2,29.93,NW,325,2.0,5.0,75,0.00,,---,0.00,VWS V14.01,2013-02-17 08:05:00,
2013-02-17 03:10:00,31.2,23.9,29.93,NW,325,0.0,5.0,74,0.00,,---,0.00,VWS V14.01,2013-02-17 08:10:00,
2013-02-17 03:15:00,31.0,23.7,29.93,NW,325,1.0,3.0,74,0.00,,---,0.00,VWS V14.01,2013-02-17 08:15:00,
2013-02-17 03:20:00,31.0,23.7,29.93,NW,325,0.0,3.0,74,0.00,,---,0.00,VWS V14.01,2013-02-17 08:20:00,
2013-02-17 03:25:00,30.9,23.9,29.93,NNW,347,2.0,2.0,75,0.00,,---,0.00,VWS V14.01,2013-02-17 08:25:00,
2013-02-17 03:30:00,30.9,23.9,29.93,NW,313,0.0,3.0,75,0.00,,---,0.00,VWS V14.01,2013-02-17 08:30:00,
2013-02-17 03:35:00,30.9,24.2,29.94,NW,309,0.0,2.0,76,0.00,,---,0.00,VWS V14.01,2013-02-17 08:35:00,
2013-02-17 03:40:00,30.7,24.0,29.94,WNW,294,0.0,2.0,76,0.00,,---,0.00,VWS V14.01,2013-02-17 08:40:00,
2013-02-17 03:45:00,30.7,24.0,29.94,WNW,294,0.0,2.0,76,0.00,,---,0.00,VWS V14.01,2013-02-17 08:45:00,
2013-02-17 03:50:00,30.6,24.0,29.94,NW,322,1.0,2.0,76,0.00,,---,0.00,VWS V14.01,2013-02-17 08:50:00,
2013-02-17 03:55:00,30.6,24.0,29.94,NW,322,0.0,0.0,76,0.00,,---,0.00,VWS V14.01,2013-02-17 08:55:00,
2013-02-17 04:00:00,30.4,23.8,29.94,NW,322,2.0,3.0,76,0.00,,---,0.00,VWS V14.01,2013-02-17 09:00:00,
2013-02-17 04:05:00,30.4,23.8,29.94,WNW,299,1.0,2.0,76,0.00,,---,0.00,VWS V14.01,2013-02-17 09:05:00,
2013-02-17 04:10:00,30.3,23.0,29.94,NW,315,1.0,3.0,74,0.00,,---,0.00,VWS V14.01,2013-02-17 09:10:00,
2013-02-17 04:15:00,30.3,23.7,29.94,WSW,237,2.0,2.0,76,0.00,,---,0.00,VWS V14.01,2013-02-17 09:15:00,
2013-02-17 04:20:00,30.3,23.3,29.95,NW,319,1.0,3.0,75,0.00,,---,0.00,VWS V14.01,2013-02-17 09:20:00,
2013-02-17 04:25:00,30.3,22.4,29.95,NW,319,0.0,5.0,72,0.00,,---,0.00,VWS V14.01,2013-02-17 09:25:00,
2013-02-17 04:30:00,30.1,22.2,29.95,NW,319,0.0,5.0,72,0.00,,---,0.00,VWS V14.01,2013-02-17 09:30:00,
2013-02-17 04:35:00,30.1,21.9,29.96,NW,319,1.0,1.0,71,0.00,,---,0.00,VWS V14.01,2013-02-17 09:35:00,
2013-02-17 04:40:00,30.1,21.9,29.96,NW,315,3.0,3.0,71,0.00,,---,0.00,VWS V14.01,2013-02-17 09:40:00,
2013-02-17 04:45:00,30.0,21.8,29.96,NW,315,0.0,2.0,71,0.00,,---,0.00,VWS V14.01,2013-02-17 09:45:00,
2013-02-17 04:50:00,30.0,22.1,29.96,NW,308,0.0,2.0,72,0.00,,---,0.00,VWS V14.01,2013-02-17 09:50:00,
2013-02-17 04:55:00,30.0,22.1,29.96,NW,309,1.0,1.0,72,0.00,,---,0.00,VWS V14.01,2013-02-17 09:55:00,
2013-02-17 05:00:00,29.8,21.9,29.96,NW,309,2.0,3.0,72,0.00,,---,0.00,VWS V14.01,2013-02-17 10:00:00,
2013-02-17 05:05:00,29.8,21.2,29.97,WNW,292,2.0,5.0,70,0.00,,---,0.00,VWS V14.01,2013-02-17 10:05:00,
2013-02-17 05:10:00,29.7,20.8,29.97,NW,316,0.0,5.0,69,0.00,,---,0.00,VWS V14.01,2013-02-17 10:10:00,
2013-02-17 05:15:00,29.7,21.8,29.97,NNW,344,0.0,1.0,72,0.00,,---,0.00,VWS V14.01,2013-02-17 10:15:00,
2013-02-17 05:20:00,29.7,22.1,29.98,NNE,20,0.0,2.0,73,0.00,,---,0.00,VWS V14.01,2013-02-17 10:20:00,
2013-02-17 05:25:00,29.5,21.6,29.98,NW,308,0.0,2.0,72,0.00,,---,0.00,VWS V14.01,2013-02-17 10:25:00,
2013-02-17 05:30:00,29.5,21.6,29.98,WNW,287,0.0,4.0,72,0.00,,---,0.00,VWS V14.01,2013-02-17 10:30:00,
2013-02-17 05:35:00,29.5,21.6,29.98,NW,318,2.0,4.0,72,0.00,,---,0.00,VWS V14.01,2013-02-17 10:35:00,
2013-02-17 05:40:00,29.4,21.5,29.98,NW,312,1.0,4.0,72,0.00,,---,0.00,VWS V14.01,2013-02-17 10:40:00,
2013-02-17 05:45:00,29.4,21.8,29.98,NW,312,1.0,2.0,73,0.00,,---,0.00,VWS V14.01,2013-02-17 10:45:00,
2013-02-17 05:50:00,29.4,21.8,29.99,NW,316,1.0,5.0,73,0.00,,---,0.00,VWS V14.01,2013-02-17 10:50:00,
2013-02-17 05:55:00,29.3,22.4,29.99,NW,316,0.0,0.0,75,0.00,,---,0.00,VWS V14.01,2013-02-17 10:55:00,
2013-02-17 06:00:00,29.3,22.1,29.99,NW,316,2.0,2.0,74,0.00,,---,0.00,VWS V14.01,2013-02-17 11:00:00,
2013-02-17 06:05:00,29.1,21.9,29.99,NW,316,0.0,2.0,74,0.00,,---,0.00,VWS V14.01,2013-02-17 11:05:00,
2013-02-17 06:10:00,29.1,21.9,29.99,NW,315,2.0,3.0,74,0.00,,---,0.00,VWS V14.01,2013-02-17 11:10:00,
2013-02-17 06:15:00,29.0,22.1,29.99,NW,316,0.0,3.0,75,0.00,,---,0.00,VWS V14.01,2013-02-17 11:15:00,
2013-02-17 06:20:00,29.0,22.4,30.00,NW,316,0.0,3.0,76,0.00,,---,0.00,VWS V14.01,2013-02-17 11:20:00,
2013-02-17 06:25:00,29.0,21.8,30.00,NW,309,1.0,2.0,74,0.00,,---,0.00,VWS V14.01,2013-02-17 11:25:00,
2013-02-17 06:30:00,28.8,21.6,30.00,WNW,299,1.0,2.0,74,0.00,,---,0.00,VWS V14.01,2013-02-17 11:30:00,
2013-02-17 06:35:00,28.8,21.9,30.00,WNW,298,2.0,4.0,75,0.00,,---,0.00,VWS V14.01,2013-02-17 11:35:00,
2013-02-17 06:40:00,28.8,21.2,30.00,WNW,295,2.0,4.0,73,0.00,,---,0.00,VWS V14.01,2013-02-17 11:40:00,
2013-02-17 06:45:00,28.7,21.1,30.00,NW,323,1.0,3.0,73,0.00,,---,0.00,VWS V14.01,2013-02-17 11:45:00,
2013-02-17 06:50:00,28.7,21.1,30.01,NW,320,2.0,3.0,73,0.00,,---,0.00,VWS V14.01,2013-02-17 11:50:00,
2013-02-17 06:55:00,28.7,21.1,30.01,NW,320,0.0,2.0,73,0.00,,---,0.00,VWS V14.01,2013-02-17 11:55:00,
2013-02-17 07:00:00,28.7,21.5,30.01,NW,309,0.0,2.0,74,0.00,,---,0.00,VWS V14.01,2013-02-17 12:00:00,
2013-02-17 07:05:00,28.5,21.3,30.01,NW,309,0.0,0.0,74,0.00,,---,0.00,VWS V14.01,2013-02-17 12:05:00,
2013-02-17 07:10:00,28.5,21.6,30.01,NW,309,0.0,0.0,75,0.00,,---,0.00,VWS V14.01,2013-02-17 12:10:00,
2013-02-17 07:15:00,28.4,21.2,30.01,NW,309,0.0,2.0,74,0.00,,---,0.00,VWS V14.01,2013-02-17 12:15:00,
2013-02-17 07:20:00,28.4,21.5,30.02,NW,309,0.0,2.0,75,0.00,,---,0.00,VWS V14.01,2013-02-17 12:20:00,
2013-02-17 07:25:00,28.4,21.8,30.02,NW,309,0.0,1.0,76,0.00,,---,0.00,VWS V14.01,2013-02-17 12:25:00,
2013-02-17 07:30:00,28.4,21.2,30.02,NW,315,0.0,3.0,74,0.00,,---,0.00,VWS V14.01,2013-02-17 12:30:00,
2013-02-17 07:35:00,28.5,21.6,30.03,NW,315,2.0,2.0,75,0.00,,---,0.00,VWS V14.01,2013-02-17 12:35:00,
2013-02-17 07:40:00,28.5,21.9,30.03,NW,315,3.0,3.0,76,0.00,,---,0.00,VWS V14.01,2013-02-17 12:40:00,
2013-02-17 07:45:00,28.7,21.1,30.03,NW,320,5.0,5.0,73,0.00,,---,0.00,VWS V14.01,2013-02-17 12:45:00,
2013-02-17 07:50:00,28.8,20.9,30.03,NW,320,1.0,5.0,72,0.00,,---,0.00,VWS V14.01,2013-02-17 12:50:00,
2013-02-17 07:55:00,29.0,20.5,30.03,NW,319,2.0,5.0,70,0.00,,---,0.00,VWS V14.01,2013-02-17 12:55:00,
2013-02-17 08:00:00,29.1,20.2,30.03,NNW,335,2.0,6.0,69,0.00,,---,0.00,VWS V14.01,2013-02-17 13:00:00,
2013-02-17 08:05:00,29.3,21.1,30.04,NNW,335,1.0,3.0,71,0.00,,---,0.00,VWS V14.01,2013-02-17 13:05:00,
2013-02-17 08:10:00,29.4,20.5,30.04,NW,320,1.0,6.0,69,0.00,,---,0.00,VWS V14.01,2013-02-17 13:10:00,
2013-02-17 08:15:00,29.5,20.6,30.04,NW,322,2.0,4.0,69,0.00,,---,0.00,VWS V14.01,2013-02-17 13:15:00,
2013-02-17 08:20:00,29.7,19.8,30.05,NNW,328,2.0,5.0,66,0.00,,---,0.00,VWS V14.01,2013-02-17 13:20:00,
2013-02-17 08:25:00,29.8,19.8,30.05,NW,319,3.0,7.0,66,0.00,,---,0.00,VWS V14.01,2013-02-17 13:25:00,
2013-02-17 08:30:00,30.0,19.7,30.05,NW,313,2.0,7.0,65,0.00,,---,0.00,VWS V14.01,2013-02-17 13:30:00,
2013-02-17 08:35:00,30.3,19.2,30.06,NW,311,3.0,6.0,63,0.00,,---,0.00,VWS V14.01,2013-02-17 13:35:00,
2013-02-17 08:40:00,30.4,19.3,30.06,NW,308,2.0,6.0,63,0.00,,---,0.00,VWS V14.01,2013-02-17 13:40:00,
2013-02-17 08:45:00,30.7,19.6,30.06,NW,319,5.0,5.0,63,0.00,,---,0.00,VWS V14.01,2013-02-17 13:45:00,
2013-02-17 08:50:00,30.9,18.7,30.06,WNW,289,2.0,7.0,60,0.00,,---,0.00,VWS V14.01,2013-02-17 13:50:00,
2013-02-17 08:55:00,31.2,19.0,30.06,NNW,347,4.0,5.0,60,0.00,,---,0.00,VWS V14.01,2013-02-17 13:55:00,
2013-02-17 09:00:00,31.3,19.0,30.06,NW,318,6.0,7.0,60,0.00,,---,0.00,VWS V14.01,2013-02-17 14:00:00,
2013-02-17 09:05:00,31.5,18.0,30.07,NW,308,2.0,8.0,57,0.00,,---,0.00,VWS V14.01,2013-02-17 14:05:00,
2013-02-17 09:10:00,31.8,18.3,30.07,NW,313,2.0,8.0,57,0.00,,---,0.00,VWS V14.01,2013-02-17 14:10:00,
2013-02-17 09:15:00,31.9,18.8,30.07,NW,309,5.0,6.0,58,0.00,,---,0.00,VWS V14.01,2013-02-17 14:15:00,
2013-02-17 09:20:00,32.1,18.2,30.07,NW,319,1.0,7.0,56,0.00,,---,0.00,VWS V14.01,2013-02-17 14:20:00,
2013-02-17 09:25:00,32.2,19.1,30.07,WNW,292,2.0,5.0,58,0.00,,---,0.00,VWS V14.01,2013-02-17 14:25:00,
2013-02-17 09:30:00,32.4,18.5,30.07,NW,323,2.0,8.0,56,0.00,,---,0.00,VWS V14.01,2013-02-17 14:30:00,
2013-02-17 09:35:00,32.5,18.1,30.07,NNW,336,5.0,8.0,55,0.00,,---,0.00,VWS V14.01,2013-02-17 14:35:00,
2013-02-17 09:40:00,32.7,17.5,30.07,North,359,4.0,10.0,53,0.00,,---,0.00,VWS V14.01,2013-02-17 14:40:00,
2013-02-17 09:45:00,32.8,18.4,30.07,NNW,333,3.0,3.0,55,0.00,,---,0.00,VWS V14.01,2013-02-17 14:45:00,
2013-02-17 09:50:00,33.2,19.2,30.08,NW,326,2.0,5.0,56,0.00,,---,0.00,VWS V14.01,2013-02-17 14:50:00,
2013-02-17 09:55:00,33.5,18.2,30.08,NNW,328,8.0,8.0,53,0.00,,---,0.00,VWS V14.01,2013-02-17 14:55:00,
2013-02-17 10:00:00,33.5,16.9,30.08,NW,318,3.0,8.0,50,0.00,,---,0.00,VWS V14.01,2013-02-17 15:00:00,
2013-02-17 10:05:00,33.7,17.0,30.08,NW,323,3.0,8.0,50,0.00,,---,0.00,VWS V14.01,2013-02-17 15:05:00,
2013-02-17 10:10:00,34.0,17.8,30.08,NW,316,5.0,8.0,51,0.00,,---,0.00,VWS V14.01,2013-02-17 15:10:00,
2013-02-17 10:15:00,34.0,17.8,30.08,NNW,332,3.0,8.0,51,0.00,,---,0.00,VWS V14.01,2013-02-17 15:15:00,
2013-02-17 10:20:00,34.1,16.0,30.08,NNW,335,2.0,8.0,47,0.00,,---,0.00,VWS V14.01,2013-02-17 15:20:00,
2013-02-17 10:25:00,34.3,17.1,30.08,NNW,333,6.0,10.0,49,0.00,,---,0.00,VWS V14.01,2013-02-17 15:25:00,
2013-02-17 10:30:00,34.4,16.8,30.08,NW,318,2.0,10.0,48,0.00,,---,0.00,VWS V14.01,2013-02-17 15:30:00,
2013-02-17 10:35:00,34.7,15.0,30.09,WNW,296,4.0,11.0,44,0.00,,---,0.00,VWS V14.01,2013-02-17 15:35:00,
2013-02-17 10:40:00,34.7,16.5,30.09,NW,309,5.0,11.0,47,0.00,,---,0.00,VWS V14.01,2013-02-17 15:40:00,
2013-02-17 10:45:00,34.7,15.6,30.09,NW,312,9.0,11.0,45,0.00,,---,0.00,VWS V14.01,2013-02-17 15:45:00,
2013-02-17 10:50:00,34.6,15.5,30.09,NW,325,6.0,11.0,45,0.00,,---,0.00,VWS V14.01,2013-02-17 15:50:00,
2013-02-17 10:55:00,34.6,16.0,30.09,NW,325,6.0,7.0,46,0.00,,---,0.00,VWS V14.01,2013-02-17 15:55:00,
2013-02-17 11:00:00,34.9,16.7,30.09,NNW,337,8.0,8.0,47,0.00,,---,0.00,VWS V14.01,2013-02-17 16:00:00,
2013-02-17 11:05:00,35.2,17.0,30.09,North,0,3.0,5.0,47,0.00,,---,0.00,VWS V14.01,2013-02-17 16:05:00,
2013-02-17 11:10:00,35.3,16.1,30.09,NW,308,3.0,8.0,45,0.00,,---,0.00,VWS V14.01,2013-02-17 16:10:00,
2013-02-17 11:15:00,35.2,15.5,30.09,NW,309,6.0,7.0,44,0.00,,---,0.00,VWS V14.01,2013-02-17 16:15:00,
2013-02-17 11:20:00,35.0,16.3,30.10,NW,326,0.0,9.0,46,0.00,,---,0.00,VWS V14.01,2013-02-17 16:20:00,
2013-02-17 11:25:00,35.3,16.6,30.10,NW,323,3.0,8.0,46,0.00,,---,0.00,VWS V14.01,2013-02-17 16:25:00,
2013-02-17 11:30:00,35.8,16.0,30.10,WNW,299,3.0,8.0,44,0.00,,---,0.00,VWS V14.01,2013-02-17 16:30:00,
2013-02-17 11:35:00,36.2,15.3,30.10,NW,320,2.0,7.0,42,0.00,,---,0.00,VWS V14.01,2013-02-17 16:35:00,
2013-02-17 11:40:00,36.9,15.4,30.10,NW,308,5.0,8.0,41,0.00,,---,0.00,VWS V14.01,2013-02-17 16:40:00,
2013-02-17 11:45:00,37.2,16.2,30.10,NW,305,4.0,6.0,42,0.00,,---,0.00,VWS V14.01,2013-02-17 16:45:00,
2013-02-17 11:50:00,37.6,16.0,30.10,North,353,0.0,7.0,41,0.00,,---,0.00,VWS V14.01,2013-02-17 16:50:00,
2013-02-17 11:55:00,38.3,17.2,30.10,South,176,3.0,8.0,42,0.00,,---,0.00,VWS V14.01,2013-02-17 16:55:00,
2013-02-17 12:00:00,38.6,15.8,30.10,NW,313,6.0,12.0,39,0.00,,---,0.00,VWS V14.01,2013-02-17 17:00:00,
2013-02-17 12:05:00,37.8,14.5,30.10,NW,318,2.0,6.0,38,0.00,,---,0.00,VWS V14.01,2013-02-17 17:05:00,
2013-02-17 12:10:00,37.8,16.2,30.10,WNW,294,5.0,7.0,41,0.00,,---,0.00,VWS V14.01,2013-02-17 17:10:00,
2013-02-17 12:15:00,38.3,14.3,30.10,WNW,302,2.0,11.0,37,0.00,,---,0.00,VWS V14.01,2013-02-17 17:15:00,
2013-02-17 12:20:00,39.1,15.6,30.09,WNW,288,2.0,11.0,38,0.00,,---,0.00,VWS V14.01,2013-02-17 17:20:00,
2013-02-17 12:25:00,39.5,16.0,30.09,North,0,7.0,10.0,38,0.00,,---,0.00,VWS V14.01,2013-02-17 17:25:00,
2013-02-17 12:30:00,39.1,12.4,30.09,SW,230,6.0,11.0,33,0.00,,---,0.00,VWS V14.01,2013-02-17 17:30:00,
2013-02-17 12:35:00,39.1,13.8,30.09,NW,323,5.0,10.0,35,0.00,,---,0.00,VWS V14.01,2013-02-17 17:35:00,
2013-02-17 12:40:00,38.9,15.5,30.09,NNW,330,3.0,10.0,38,0.00,,---,0.00,VWS V14.01,2013-02-17 17:40:00,
2013-02-17 12:45:00,38.9,13.6,30.09,NW,315,6.0,6.0,35,0.00,,---,0.00,VWS V14.01,2013-02-17 17:45:00,
2013-02-17 12:50:00,38.8,14.1,30.09,WNW,295,2.0,7.0,36,0.00,,---,0.00,VWS V14.01,2013-02-17 17:50:00,
2013-02-17 12:55:00,38.5,14.5,30.09,NW,319,2.0,6.0,37,0.00,,---,0.00,VWS V14.01,2013-02-17 17:55:00,
2013-02-17 12:59:00,38.5,13.9,30.09,NW,313,7.0,8.0,36,0.00,,---,0.00,VWS V14.01,2013-02-17 17:59:00,
2013-02-17 13:04:00,38.0,12.8,30.08,WNW,302,3.0,7.0,35,0.00,,---,0.00,VWS V14.01,2013-02-17 18:04:00,
2013-02-17 13:09:00,38.0,13.4,30.08,NW,318,0.0,10.0,36,0.00,,---,0.00,VWS V14.01,2013-02-17 18:09:00,
2013-02-17 13:14:00,38.5,12.6,30.08,NNW,340,3.0,6.0,34,0.00,,---,0.00,VWS V14.01,2013-02-17 18:14:00,
2013-02-17 13:19:00,38.8,12.9,30.08,NW,319,5.0,8.0,34,0.00,,---,0.00,VWS V14.01,2013-02-17 18:19:00,
2013-02-17 13:24:00,38.8,14.1,30.08,NNW,329,6.0,7.0,36,0.00,,---,0.00,VWS V14.01,2013-02-17 18:24:00,
2013-02-17 13:29:00,38.8,12.2,30.08,NW,313,4.0,7.0,33,0.00,,---,0.00,VWS V14.01,2013-02-17 18:29:00,
2013-02-17 13:34:00,38.9,13.6,30.08,NW,312,5.0,5.0,35,0.00,,---,0.00,VWS V14.01,2013-02-17 18:34:00,
2013-02-17 13:39:00,39.1,14.4,30.08,NW,320,6.0,6.0,36,0.00,,---,0.00,VWS V14.01,2013-02-17 18:39:00,
2013-02-17 13:44:00,39.1,14.4,30.08,NNW,332,0.0,7.0,36,0.00,,---,0.00,VWS V14.01,2013-02-17 18:44:00,
2013-02-17 13:49:00,38.9,11.6,30.08,NW,320,3.0,10.0,32,0.00,,---,0.00,VWS V14.01,2013-02-17 18:49:00,
2013-02-17 13:54:00,38.8,13.5,30.08,NNW,328,2.0,5.0,35,0.00,,---,0.00,VWS V14.01,2013-02-17 18:54:00,
2013-02-17 13:59:00,38.8,13.5,30.08,NW,304,4.0,7.0,35,0.00,,---,0.00,VWS V14.01,2013-02-17 18:59:00,
2013-02-17 14:04:00,39.2,13.2,30.07,NNW,329,3.0,6.0,34,0.00,,---,0.00,VWS V14.01,2013-02-17 19:04:00,
2013-02-17 14:09:00,39.6,14.9,30.07,NW,308,3.0,6.0,36,0.00,,---,0.00,VWS V14.01,2013-02-17 19:09:00,
2013-02-17 14:14:00,39.9,14.5,30.07,WNW,302,4.0,6.0,35,0.00,,---,0.00,VWS V14.01,2013-02-17 19:14:00,
2013-02-17 14:19:00,40.1,15.3,30.07,WNW,301,2.0,7.0,36,0.00,,---,0.00,VWS V14.01,2013-02-17 19:19:00,
2013-02-17 14:24:00,40.2,15.4,30.07,NW,311,10.0,10.0,36,0.00,,---,0.00,VWS V14.01,2013-02-17 19:24:00,
2013-02-17 14:29:00,39.8,14.4,30.07,NNW,328,5.0,10.0,35,0.00,,---,0.00,VWS V14.01,2013-02-17 19:29:00,
2013-02-17 14:34:00,39.5,13.5,30.07,NNW,339,2.0,6.0,34,0.00,,---,0.00,VWS V14.01,2013-02-17 19:34:00,
2013-02-17 14:39:00,39.5,14.8,30.07,NNW,335,5.0,7.0,36,0.00,,---,0.00,VWS V14.01,2013-02-17 19:39:00,
2013-02-17 14:44:00,39.6,14.9,30.07,NW,308,5.0,5.0,36,0.00,,---,0.00,VWS V14.01,2013-02-17 19:44:00,
2013-02-17 14:49:00,39.8,12.4,30.08,WNW,299,3.0,9.0,32,0.00,,---,0.00,VWS V14.01,2013-02-17 19:49:00,
2013-02-17 14:54:00,39.9,13.1,30.08,WNW,291,2.0,8.0,33,0.00,,---,0.00,VWS V14.01,2013-02-17 19:54:00,
2013-02-17 14:59:00,39.9,13.8,30.08,NW,308,3.0,8.0,34,0.00,,---,0.00,VWS V14.01,2013-02-17 19:59:00,
2013-02-17 15:04:00,40.1,15.3,30.07,NW,305,1.0,4.0,36,0.00,,---,0.00,VWS V14.01,2013-02-17 20:04:00,
2013-02-17 15:09:00,40.2,15.4,30.07,NW,313,2.0,8.0,36,0.00,,---,0.00,VWS V14.01,2013-02-17 20:09:00,
2013-02-17 15:14:00,40.2,12.7,30.07,WNW,299,2.0,6.0,32,0.00,,---,0.00,VWS V14.01,2013-02-17 20:14:00,
2013-02-17 15:19:00,40.2,13.4,30.07,NNW,333,4.0,6.0,33,0.00,,---,0.00,VWS V14.01,2013-02-17 20:19:00,
2013-02-17 15:24:00,40.9,12.6,30.07,NNW,347,1.0,7.0,31,0.00,,---,0.00,VWS V14.01,2013-02-17 20:24:00,
2013-02-17 15:29:00,41.1,12.8,30.07,NW,305,5.0,11.0,31,0.00,,---,0.00,VWS V14.01,2013-02-17 20:29:00,
2013-02-17 15:34:00,41.2,13.6,30.07,NW,308,2.0,5.0,32,0.00,,---,0.00,VWS V14.01,2013-02-17 20:34:00,
2013-02-17 15:39:00,41.3,15.7,30.07,WNW,298,2.0,7.0,35,0.00,,---,0.00,VWS V14.01,2013-02-17 20:39:00,
2013-02-17 15:44:00,41.2,12.9,30.07,NW,306,3.0,7.0,31,0.00,,---,0.00,VWS V14.01,2013-02-17 20:44:00,
2013-02-17 15:49:00,41.2,15.6,30.07,WNW,287,1.0,7.0,35,0.00,,---,0.00,VWS V14.01,2013-02-17 20:49:00,
2013-02-17 15:54:00,41.3,15.1,30.07,North,350,3.0,5.0,34,0.00,,---,0.00,VWS V14.01,2013-02-17 20:54:00,
2013-02-17 15:59:00,41.3,15.1,30.07,NNW,329,5.0,5.0,34,0.00,,---,0.00,VWS V14.01,2013-02-17 20:59:00,
2013-02-17 16:04:00,41.1,14.9,30.08,NW,313,1.0,4.0,34,0.00,,---,0.00,VWS V14.01,2013-02-17 21:04:00,
2013-02-17 16:09:00,41.2,13.6,30.08,NW,304,4.0,7.0,32,0.00,,---,0.00,VWS V14.01,2013-02-17 21:09:00,
2013-02-17 16:14:00,41.5,13.9,30.08,NW,322,4.0,10.0,32,0.00,,---,0.00,VWS V14.01,2013-02-17 21:14:00,
2013-02-17 16:19:00,41.3,13.0,30.08,NNW,329,4.0,10.0,31,0.00,,---,0.00,VWS V14.01,2013-02-17 21:19:00,
2013-02-17 16:24:00,41.1,12.8,30.08,NW,316,2.0,5.0,31,0.00,,---,0.00,VWS V14.01,2013-02-17 21:24:00,
2013-02-17 16:29:00,40.9,14.0,30.08,West,268,2.0,6.0,33,0.00,,---,0.00,VWS V14.01,2013-02-17 21:29:00,
2013-02-17 16:34:00,40.9,13.3,30.09,NNW,328,3.0,7.0,32,0.00,,---,0.00,VWS V14.01,2013-02-17 21:34:00,
2013-02-17 16:39:00,40.8,13.9,30.09,NW,311,1.0,7.0,33,0.00,,---,0.00,VWS V14.01,2013-02-17 21:39:00,
2013-02-17 16:44:00,40.6,13.1,30.09,NNW,328,3.0,6.0,32,0.00,,---,0.00,VWS V14.01,2013-02-17 21:44:00,
2013-02-17 16:49:00,40.5,13.7,30.09,NNW,335,2.0,6.0,33,0.00,,---,0.00,VWS V14.01,2013-02-17 21:49:00,
2013-02-17 16:54:00,40.5,13.7,30.09,NW,316,3.0,6.0,33,0.00,,---,0.00,VWS V14.01,2013-02-17 21:54:00,
2013-02-17 16:59:00,40.5,15.0,30.09,NW,316,2.0,6.0,35,0.00,,---,0.00,VWS V14.01,2013-02-17 21:59:00,
2013-02-17 17:04:00,40.3,14.2,30.09,NW,326,3.0,3.0,34,0.00,,---,0.00,VWS V14.01,2013-02-17 22:04:00,
2013-02-17 17:09:00,40.3,15.5,30.09,WNW,295,2.0,6.0,36,0.00,,---,0.00,VWS V14.01,2013-02-17 22:09:00,
2013-02-17 17:14:00,40.2,16.0,30.09,NW,312,0.0,5.0,37,0.00,,---,0.00,VWS V14.01,2013-02-17 22:14:00,
2013-02-17 17:19:00,40.1,15.3,30.10,WNW,284,1.0,5.0,36,0.00,,---,0.00,VWS V14.01,2013-02-17 22:19:00,
2013-02-17 17:24:00,39.9,15.1,30.10,WNW,302,5.0,5.0,36,0.00,,---,0.00,VWS V14.01,2013-02-17 22:24:00,
2013-02-17 17:29:00,39.8,15.0,30.10,WNW,296,2.0,6.0,36,0.00,,---,0.00,VWS V14.01,2013-02-17 22:29:00,
2013-02-17 17:34:00,39.8,16.3,30.10,WNW,296,0.0,0.0,38,0.00,,---,0.00,VWS V14.01,2013-02-17 22:34:00,
2013-02-17 17:39:00,39.6,17.9,30.10,NW,313,1.0,4.0,41,0.00,,---,0.00,VWS V14.01,2013-02-17 22:39:00,
2013-02-17 17:44:00,39.5,16.0,30.10,NW,312,0.0,4.0,38,0.00,,---,0.00,VWS V14.01,2013-02-17 22:44:00,
2013-02-17 17:49:00,39.3,16.4,30.11,NNW,335,1.0,4.0,39,0.00,,---,0.00,VWS V14.01,2013-02-17 22:49:00,
2013-02-17 17:54:00,39.2,15.7,30.11,WNW,292,1.0,2.0,38,0.00,,---,0.00,VWS V14.01,2013-02-17 22:54:00,
2013-02-17 17:59:00,39.1,16.2,30.11,WNW,292,0.0,2.0,39,0.00,,---,0.00,VWS V14.01,2013-02-17 22:59:00,
2013-02-17 18:04:00,39.1,17.4,30.11,WNW,292,0.0,0.0,41,0.00,,---,0.00,VWS V14.01,2013-02-17 23:04:00,
2013-02-17 18:09:00,38.9,17.8,30.11,WNW,292,0.0,0.0,42,0.00,,---,0.00,VWS V14.01,2013-02-17 23:09:00,
2013-02-17 18:14:00,38.8,17.7,30.11,WNW,292,0.0,0.0,42,0.00,,---,0.00,VWS V14.01,2013-02-17 23:14:00,
2013-02-17 18:19:00,38.6,19.6,30.12,WNW,292,0.0,0.0,46,0.00,,---,0.00,VWS V14.01,2013-02-17 23:19:00,
2013-02-17 18:24:00,38.5,18.5,30.12,WNW,292,0.0,0.0,44,0.00,,---,0.00,VWS V14.01,2013-02-17 23:24:00,
2013-02-17 18:29:00,38.3,19.4,30.12,WNW,292,0.0,0.0,46,0.00,,---,0.00,VWS V14.01,2013-02-17 23:29:00,
2013-02-17 18:34:00,38.2,19.3,30.13,WNW,292,0.0,0.0,46,0.00,,---,0.00,VWS V14.01,2013-02-17 23:34:00,
2013-02-17 18:39:00,38.0,18.6,30.13,WNW,292,0.0,0.0,45,0.00,,---,0.00,VWS V14.01,2013-02-17 23:39:00,
2013-02-17 18:44:00,37.8,18.9,30.13,WNW,292,0.0,0.0,46,0.00,,---,0.00,VWS V14.01,2013-02-17 23:44:00,
2013-02-17 18:49:00,37.6,19.2,30.14,WNW,292,0.0,0.0,47,0.00,,---,0.00,VWS V14.01,2013-02-17 23:49:00,
2013-02-17 18:54:00,37.5,19.6,30.14,WNW,292,0.0,0.0,48,0.00,,---,0.00,VWS V14.01,2013-02-17 23:54:00,
2013-02-17 18:59:00,37.3,19.4,30.14,WNW,292,0.0,0.0,48,0.00,,---,0.00,VWS V14.01,2013-02-17 23:59:00,
2013-02-17 19:04:00,37.2,20.3,30.14,North,349,0.0,0.0,50,0.00,,---,0.00,VWS V14.01,2013-02-18 00:04:00,
2013-02-17 19:09:00,36.9,20.5,30.14,North,349,0.0,0.0,51,0.00,,---,0.00,VWS V14.01,2013-02-18 00:09:00,
2013-02-17 19:14:00,36.8,20.8,30.14,North,349,0.0,0.0,52,0.00,,---,0.00,VWS V14.01,2013-02-18 00:14:00,
2013-02-17 19:19:00,36.6,21.5,30.14,North,349,0.0,0.0,54,0.00,,---,0.00,VWS V14.01,2013-02-18 00:19:00,
2013-02-17 19:24:00,36.5,21.9,30.14,North,349,0.0,0.0,55,0.00,,---,0.00,VWS V14.01,2013-02-18 00:24:00,
2013-02-17 19:29:00,36.2,22.0,30.14,North,349,0.0,0.0,56,0.00,,---,0.00,VWS V14.01,2013-02-18 00:29:00,
2013-02-17 19:34:00,36.0,21.8,30.15,North,349,0.0,0.0,56,0.00,,---,0.00,VWS V14.01,2013-02-18 00:34:00,
2013-02-17 19:39:00,35.9,21.8,30.15,North,349,0.0,0.0,56,0.00,,---,0.00,VWS V14.01,2013-02-18 00:39:00,
2013-02-17 19:44:00,35.8,22.1,30.15,North,352,0.0,0.0,57,0.00,,---,0.00,VWS V14.01,2013-02-18 00:44:00,
2013-02-17 19:49:00,35.6,21.9,30.15,North,352,0.0,0.0,57,0.00,,---,0.00,VWS V14.01,2013-02-18 00:49:00,
2013-02-17 19:54:00,35.6,22.7,30.15,WSW,257,0.0,0.0,59,0.00,,---,0.00,VWS V14.01,2013-02-18 00:54:00,
2013-02-17 19:59:00,35.5,23.0,30.15,WSW,257,0.0,0.0,60,0.00,,---,0.00,VWS V14.01,2013-02-18 00:59:00,
2013-02-17 20:04:00,35.3,22.4,30.16,WSW,257,0.0,0.0,59,0.00,,---,0.00,VWS V14.01,2013-02-18 01:04:00,
2013-02-17 20:09:00,35.2,22.3,30.16,WSW,257,0.0,0.0,59,0.00,,---,0.00,VWS V14.01,2013-02-18 01:09:00,
2013-02-17 20:14:00,35.2,22.3,30.16,WSW,257,0.0,0.0,59,0.00,,---,0.00,VWS V14.01,2013-02-18 01:14:00,
2013-02-17 20:19:00,35.0,21.7,30.17,WSW,257,0.0,0.0,58,0.00,,---,0.00,VWS V14.01,2013-02-18 01:19:00,
2013-02-17 20:24:00,35.0,21.7,30.17,WSW,257,0.0,0.0,58,0.00,,---,0.00,VWS V14.01,2013-02-18 01:24:00,
2013-02-17 20:29:00,34.9,22.0,30.17,WSW,257,0.0,0.0,59,0.00,,---,0.00,VWS V14.01,2013-02-18 01:29:00,
2013-02-17 20:34:00,34.7,22.2,30.17,WSW,257,0.0,0.0,60,0.00,,---,0.00,VWS V14.01,2013-02-18 01:34:00,
2013-02-17 20:39:00,34.6,22.2,30.17,WSW,257,0.0,0.0,60,0.00,,---,0.00,VWS V14.01,2013-02-18 01:39:00,
2013-02-17 20:44:00,34.4,21.6,30.17,WSW,257,0.0,0.0,59,0.00,,---,0.00,VWS V14.01,2013-02-18 01:44:00,
2013-02-17 20:49:00,34.3,21.9,30.17,WSW,257,0.0,0.0,60,0.00,,---,0.00,VWS V14.01,2013-02-18 01:49:00,
2013-02-17 20:54:00,34.1,22.1,30.17,WSW,257,0.0,0.0,61,0.00,,---,0.00,VWS V14.01,2013-02-18 01:54:00,
2013-02-17 20:59:00,33.8,22.2,30.17,WSW,257,0.0,0.0,62,0.00,,---,0.00,VWS V14.01,2013-02-18 01:59:00,
2013-02-17 21:04:00,33.7,22.5,30.18,WSW,257,0.0,0.0,63,0.00,,---,0.00,VWS V14.01,2013-02-18 02:04:00,
2013-02-17 21:09:00,33.5,22.3,30.18,WSW,257,0.0,0.0,63,0.00,,---,0.00,VWS V14.01,2013-02-18 02:09:00,
2013-02-17 21:14:00,33.5,22.3,30.18,WSW,257,0.0,0.0,63,0.00,,---,0.00,VWS V14.01,2013-02-18 02:14:00,
2013-02-17 21:19:00,33.4,22.2,30.18,WSW,257,0.0,0.0,63,0.00,,---,0.00,VWS V14.01,2013-02-18 02:19:00,
2013-02-17 21:24:00,33.4,22.2,30.18,WSW,257,0.0,0.0,63,0.00,,---,0.00,VWS V14.01,2013-02-18 02:24:00,
2013-02-17 21:29:00,33.2,22.0,30.18,WSW,257,0.0,0.0,63,0.00,,---,0.00,VWS V14.01,2013-02-18 02:29:00,
2013-02-17 21:34:00,33.1,22.3,30.19,WSW,257,0.0,0.0,64,0.00,,---,0.00,VWS V14.01,2013-02-18 02:34:00,
2013-02-17 21:39:00,32.9,22.1,30.19,WSW,257,0.0,0.0,64,0.00,,---,0.00,VWS V14.01,2013-02-18 02:39:00,
2013-02-17 21:44:00,32.9,22.8,30.19,WSW,257,0.0,0.0,66,0.00,,---,0.00,VWS V14.01,2013-02-18 02:44:00,
2013-02-17 21:49:00,32.7,22.6,30.20,WSW,257,0.0,0.0,66,0.00,,---,0.00,VWS V14.01,2013-02-18 02:49:00,
2013-02-17 21:54:00,32.5,22.8,30.20,WSW,257,0.0,0.0,67,0.00,,---,0.00,VWS V14.01,2013-02-18 02:54:00,
2013-02-17 21:59:00,32.4,22.7,30.20,WSW,257,0.0,0.0,67,0.00,,---,0.00,VWS V14.01,2013-02-18 02:59:00,
2013-02-17 22:04:00,32.4,23.0,30.20,WSW,257,0.0,0.0,68,0.00,,---,0.00,VWS V14.01,2013-02-18 03:04:00,
2013-02-17 22:09:00,32.2,22.8,30.20,WSW,257,0.0,0.0,68,0.00,,---,0.00,VWS V14.01,2013-02-18 03:09:00,
2013-02-17 22:14:00,32.2,22.5,30.20,WSW,257,0.0,0.0,67,0.00,,---,0.00,VWS V14.01,2013-02-18 03:14:00,
2013-02-17 22:19:00,32.1,22.4,30.21,WSW,257,0.0,0.0,67,0.00,,---,0.00,VWS V14.01,2013-02-18 03:19:00,
2013-02-17 22:24:00,32.1,23.1,30.21,WSW,257,0.0,0.0,69,0.00,,---,0.00,VWS V14.01,2013-02-18 03:24:00,
2013-02-17 22:29:00,31.8,23.1,30.21,WSW,257,0.0,0.0,70,0.00,,---,0.00,VWS V14.01,2013-02-18 03:29:00,
2013-02-17 22:34:00,31.6,23.0,30.21,WSW,257,0.0,0.0,70,0.00,,---,0.00,VWS V14.01,2013-02-18 03:34:00,
2013-02-17 22:39:00,31.5,23.5,30.21,WSW,257,0.0,0.0,72,0.00,,---,0.00,VWS V14.01,2013-02-18 03:39:00,
2013-02-17 22:44:00,31.2,23.2,30.21,WSW,257,0.0,0.0,72,0.00,,---,0.00,VWS V14.01,2013-02-18 03:44:00,
2013-02-17 22:49:00,31.0,23.0,30.22,WSW,257,0.0,0.0,72,0.00,,---,0.00,VWS V14.01,2013-02-18 03:49:00,
2013-02-17 22:54:00,31.0,22.7,30.22,WSW,257,0.0,0.0,71,0.00,,---,0.00,VWS V14.01,2013-02-18 03:54:00,
2013-02-17 22:59:00,31.0,22.7,30.22,WSW,257,0.0,0.0,71,0.00,,---,0.00,VWS V14.01,2013-02-18 03:59:00,
2013-02-17 23:04:00,31.0,22.7,30.22,WSW,257,0.0,0.0,71,0.00,,---,0.00,VWS V14.01,2013-02-18 04:04:00,
2013-02-17 23:09:00,31.0,22.7,30.22,WSW,257,0.0,0.0,71,0.00,,---,0.00,VWS V14.01,2013-02-18 04:09:00,
2013-02-17 23:14:00,30.9,23.9,30.22,WSW,257,0.0,0.0,75,0.00,,---,0.00,VWS V14.01,2013-02-18 04:14:00,
2013-02-17 23:19:00,30.6,23.3,30.22,WSW,257,0.0,0.0,74,0.00,,---,0.00,VWS V14.01,2013-02-18 04:19:00,
2013-02-17 23:24:00,30.4,22.8,30.22,WSW,257,0.0,0.0,73,0.00,,---,0.00,VWS V14.01,2013-02-18 04:24:00,
2013-02-17 23:29:00,30.4,22.5,30.22,WSW,257,0.0,0.0,72,0.00,,---,0.00,VWS V14.01,2013-02-18 04:29:00,
2013-02-17 23:34:00,30.4,22.1,30.23,WSW,257,0.0,0.0,71,0.00,,---,0.00,VWS V14.01,2013-02-18 04:34:00,
2013-02-17 23:39:00,30.3,22.7,30.23,WSW,257,0.0,0.0,73,0.00,,---,0.00,VWS V14.01,2013-02-18 04:39:00,
2013-02-17 23:44:00,30.3,23.3,30.23,WSW,257,0.0,0.0,75,0.00,,---,0.00,VWS V14.01,2013-02-18 04:44:00,
2013-02-17 23:49:00,30.1,22.8,30.23,WSW,257,0.0,0.0,74,0.00,,---,0.00,VWS V14.01,2013-02-18 04:49:00,
2013-02-17 23:54:00,30.0,22.4,30.23,WSW,257,0.0,0.0,73,0.00,,---,0.00,VWS V14.01,2013-02-18 04:54:00,
2013-02-17 23:59:00,29.8,22.2,30.23,WSW,257,0.0,0.0,73,0.00,,---,0.00,VWS V14.01,2013-02-18 04:59:00,